createdAt,value
2018-07-30T00:04:57.803Z,19.62
2018-07-30T00:14:55.119Z,19.62
2018-07-30T00:24:51.978Z,19.52
2018-07-30T00:34:47.608Z,19.52
2018-07-30T00:44:43.327Z,19.43
2018-07-30T00:54:42.359Z,19.52
2018-07-30T01:04:38.502Z,19.52
2018-07-30T01:14:33.599Z,19.52
2018-07-30T01:24:31.221Z,19.43
2018-07-30T01:34:28.047Z,19.43
2018-07-30T01:44:23.758Z,19.43
2018-07-30T01:54:22.497Z,19.23
2018-07-30T02:04:20.775Z,19.23
2018-07-30T02:14:13.725Z,19.13
2018-07-30T02:24:07.972Z,19.13
2018-07-30T02:34:06.442Z,19.04
2018-07-30T02:44:02.582Z,18.84
2018-07-30T02:53:58.349Z,18.74
2018-07-30T03:03:56.750Z,18.74
2018-07-30T03:13:54.539Z,18.64
2018-07-30T03:23:53.665Z,18.55
2018-07-30T03:33:50.985Z,18.45
2018-07-30T03:43:46.748Z,18.45
2018-07-30T03:53:43.921Z,18.45
2018-07-30T04:03:40.303Z,18.45
2018-07-30T04:13:35.714Z,18.45
2018-07-30T04:23:32.042Z,18.84
2018-07-30T04:33:28.929Z,19.03
2018-07-30T04:43:24.192Z,19.33
2018-07-30T04:53:22.072Z,19.62
2018-07-30T05:03:18.916Z,19.91
2018-07-30T05:13:16.086Z,20.31
2018-07-30T05:23:14.442Z,20.41
2018-07-30T05:33:11.170Z,20.50
2018-07-30T05:43:05.848Z,20.60
2018-07-30T05:53:00.443Z,20.89
2018-07-30T06:02:59.343Z,21.58
2018-07-30T06:12:53.696Z,22.26
2018-07-30T06:22:53.679Z,22.46
2018-07-30T06:32:51.409Z,22.95
2018-07-30T06:42:49.198Z,23.34
2018-07-30T06:52:46.680Z,23.63
2018-07-30T07:02:45.235Z,24.32
2018-07-30T07:12:35.787Z,24.90
2018-07-30T07:22:31.468Z,25.00
2018-07-30T07:32:30.474Z,25.49
2018-07-30T07:42:29.316Z,25.88
2018-07-30T07:52:24.943Z,26.37
2018-07-30T08:02:22.554Z,26.86
2018-07-30T08:12:21.902Z,27.35
2018-07-30T08:22:18.794Z,27.64
2018-07-30T08:32:16.427Z,27.84
2018-07-30T08:42:12.082Z,27.44
2018-07-30T08:52:08.675Z,26.95
2018-07-30T09:02:06.880Z,26.56
2018-07-30T09:12:02.124Z,26.86
2018-07-30T09:21:59.336Z,27.54
2018-07-30T09:31:58.586Z,28.23
2018-07-30T09:41:55.908Z,27.74
2018-07-30T09:51:49.216Z,27.05
2018-07-30T10:01:47.561Z,27.64
2018-07-30T10:11:44.678Z,27.64
2018-07-30T10:21:41.552Z,27.74
2018-07-30T10:31:41.597Z,28.32
2018-07-30T10:41:36.864Z,27.83
2018-07-30T10:51:32.131Z,27.25
2018-07-30T11:01:31.525Z,27.35
2018-07-30T11:11:29.486Z,27.05
2018-07-30T11:21:18.069Z,26.96
2018-07-30T11:31:12.895Z,26.76
2018-07-30T11:41:12.612Z,26.66
2018-07-30T11:51:01.788Z,26.66
2018-07-30T12:00:56.649Z,30.67
2018-07-30T12:10:55.628Z,32.82
2018-07-30T12:20:52.602Z,31.94
2018-07-30T12:30:49.345Z,30.96
2018-07-30T12:40:46.014Z,32.14
2018-07-30T12:50:36.494Z,28.71
2018-07-30T13:00:28.627Z,27.44
2018-07-30T13:10:24.612Z,26.76
2018-07-30T13:20:17.477Z,29.21
2018-07-30T13:30:17.325Z,32.63
2018-07-30T13:40:14.052Z,34.19
2018-07-30T13:50:05.721Z,30.77
2018-07-30T13:59:54.663Z,28.91
2018-07-30T14:09:43.529Z,27.64
2018-07-30T14:19:30.573Z,26.95
2018-07-30T14:29:22.801Z,23.83
2018-07-30T14:39:07.891Z,22.75
2018-07-30T14:48:57.672Z,22.36
2018-07-30T14:58:46.888Z,22.07
2018-07-30T15:08:39.526Z,21.87
2018-07-30T15:18:42.468Z,24.02
2018-07-30T15:28:35.583Z,23.83
2018-07-30T15:38:25.194Z,23.44
2018-07-30T15:48:21.181Z,23.04
2018-07-30T15:58:17.162Z,22.85
2018-07-30T16:08:13.630Z,23.24
2018-07-30T16:18:12.906Z,23.73
2018-07-30T16:28:09.878Z,23.44
2018-07-30T16:38:03.591Z,23.24
2018-07-30T16:48:01.415Z,23.14
2018-07-30T16:57:58.369Z,23.44
2018-07-30T17:07:54.397Z,23.73
2018-07-30T17:17:52.438Z,23.83
2018-07-30T17:27:46.738Z,23.24
2018-07-30T17:37:42.732Z,23.24
2018-07-30T17:47:35.940Z,22.95
2018-07-30T17:57:30.843Z,22.56
2018-07-30T18:07:24.051Z,22.07
2018-07-30T18:17:19.250Z,21.68
2018-07-30T18:27:13.977Z,21.38
2018-07-30T18:37:10.821Z,21.09
2018-07-30T18:47:03.888Z,20.89
2018-07-30T18:56:56.906Z,20.70
2018-07-30T19:06:54.578Z,20.50
2018-07-30T19:16:50.311Z,20.21
2018-07-30T19:26:47.202Z,20.11
2018-07-30T19:36:44.733Z,19.91
2018-07-30T19:46:37.854Z,19.82
2018-07-30T19:56:34.198Z,19.72
2018-07-30T20:06:29.217Z,19.62
2018-07-30T20:16:20.249Z,19.43
2018-07-30T20:26:16.459Z,19.23
2018-07-30T20:36:09.302Z,19.23
2018-07-30T20:46:05.019Z,19.03
2018-07-30T20:56:01.407Z,19.04
2018-07-30T21:05:57.932Z,18.94
2018-07-30T21:15:53.512Z,18.74
2018-07-30T21:25:47.975Z,18.64
2018-07-30T21:35:37.298Z,18.74
2018-07-30T21:45:33.990Z,18.55
2018-07-30T21:55:29.475Z,18.45
2018-07-30T22:05:23.572Z,18.35
2018-07-30T22:15:21.125Z,18.15
2018-07-30T22:25:18.047Z,18.16
2018-07-30T22:35:21.699Z,17.96
2018-07-30T22:45:13.424Z,17.86
2018-07-30T22:55:10.855Z,17.76
2018-07-30T23:05:06.180Z,17.67
2018-07-30T23:15:02.817Z,17.67
2018-07-30T23:25:00.320Z,17.67
2018-07-30T23:34:56.944Z,17.47
2018-07-30T23:44:50.567Z,17.47
2018-07-30T23:54:48.995Z,17.47
